sensor_id;sensor_type;location;lat;lon;timestamp;P1;durP1;ratioP1;P2;durP2;ratioP2
35245;SDS011;21379;50.962;6.960;2023-06-14T00:01:52;4.72;;;2.78;;
35245;SDS011;21379;50.962;6.960;2023-06-14T00:04:20;5.72;;;3.17;;
35245;SDS011;21379;50.962;6.960;2023-06-14T00:06:50;4.95;;;2.97;;
35245;SDS011;21379;50.962;6.960;2023-06-14T00:09:17;5.43;;;3.05;;
35245;SDS011;21379;50.962;6.960;2023-06-14T00:11:44;5.70;;;3.65;;
35245;SDS011;21379;50.962;6.960;2023-06-14T00:14:13;5.45;;;2.75;;
35245;SDS011;21379;50.962;6.960;2023-06-14T00:16:40;4.22;;;2.75;;
35245;SDS011;21379;50.962;6.960;2023-06-14T00:19:07;5.07;;;3.13;;
35245;SDS011;21379;50.962;6.960;2023-06-14T00:21:35;5.70;;;2.97;;
35245;SDS011;21379;50.962;6.960;2023-06-14T00:24:03;6.63;;;2.90;;
35245;SDS011;21379;50.962;6.960;2023-06-14T00:26:30;5.47;;;3.08;;
35245;SDS011;21379;50.962;6.960;2023-06-14T00:28:57;7.53;;;2.83;;
35245;SDS011;21379;50.962;6.960;2023-06-14T00:31:26;5.68;;;3.08;;
35245;SDS011;21379;50.962;6.960;2023-06-14T00:33:53;3.70;;;2.42;;
35245;SDS011;21379;50.962;6.960;2023-06-14T00:36:20;5.57;;;2.72;;
35245;SDS011;21379;50.962;6.960;2023-06-14T00:38:47;5.13;;;3.17;;
35245;SDS011;21379;50.962;6.960;2023-06-14T00:41:14;5.43;;;3.20;;
35245;SDS011;21379;50.962;6.960;2023-06-14T00:43:41;4.43;;;3.20;;
35245;SDS011;21379;50.962;6.960;2023-06-14T00:46:08;4.47;;;3.28;;
35245;SDS011;21379;50.962;6.960;2023-06-14T00:48:37;4.30;;;2.80;;
35245;SDS011;21379;50.962;6.960;2023-06-14T00:51:05;3.88;;;2.75;;
35245;SDS011;21379;50.962;6.960;2023-06-14T00:53:33;8.00;;;3.13;;
35245;SDS011;21379;50.962;6.960;2023-06-14T00:56:00;5.18;;;2.88;;
35245;SDS011;21379;50.962;6.960;2023-06-14T00:58:28;5.20;;;2.83;;
35245;SDS011;21379;50.962;6.960;2023-06-14T01:00:56;5.15;;;3.10;;
35245;SDS011;21379;50.962;6.960;2023-06-14T01:03:24;6.65;;;3.35;;
35245;SDS011;21379;50.962;6.960;2023-06-14T01:05:56;5.90;;;3.25;;
35245;SDS011;21379;50.962;6.960;2023-06-14T01:08:35;4.03;;;2.70;;
35245;SDS011;21379;50.962;6.960;2023-06-14T01:11:12;5.10;;;2.72;;
35245;SDS011;21379;50.962;6.960;2023-06-14T01:13:45;4.03;;;2.90;;
35245;SDS011;21379;50.962;6.960;2023-06-14T01:16:13;5.05;;;2.72;;
35245;SDS011;21379;50.962;6.960;2023-06-14T01:18:41;4.65;;;3.08;;
35245;SDS011;21379;50.962;6.960;2023-06-14T01:21:22;3.90;;;2.70;;
35245;SDS011;21379;50.962;6.960;2023-06-14T01:23:51;3.13;;;2.63;;
35245;SDS011;21379;50.962;6.960;2023-06-14T01:26:20;5.10;;;3.33;;
35245;SDS011;21379;50.962;6.960;2023-06-14T01:28:50;4.97;;;2.83;;
35245;SDS011;21379;50.962;6.960;2023-06-14T01:31:24;4.28;;;2.83;;
35245;SDS011;21379;50.962;6.960;2023-06-14T01:33:52;4.80;;;2.78;;
35245;SDS011;21379;50.962;6.960;2023-06-14T01:36:22;4.93;;;2.80;;
35245;SDS011;21379;50.962;6.960;2023-06-14T01:38:57;4.80;;;2.93;;
35245;SDS011;21379;50.962;6.960;2023-06-14T01:41:26;4.93;;;2.97;;
35245;SDS011;21379;50.962;6.960;2023-06-14T01:43:54;4.38;;;3.00;;
35245;SDS011;21379;50.962;6.960;2023-06-14T01:46:22;5.18;;;3.53;;
35245;SDS011;21379;50.962;6.960;2023-06-14T01:48:49;4.10;;;2.97;;
35245;SDS011;21379;50.962;6.960;2023-06-14T01:51:17;4.40;;;2.92;;
35245;SDS011;21379;50.962;6.960;2023-06-14T01:53:43;5.60;;;3.10;;
35245;SDS011;21379;50.962;6.960;2023-06-14T01:56:13;5.25;;;3.22;;
35245;SDS011;21379;50.962;6.960;2023-06-14T01:58:40;5.35;;;3.25;;
35245;SDS011;21379;50.962;6.960;2023-06-14T02:01:07;4.10;;;2.53;;
35245;SDS011;21379;50.962;6.960;2023-06-14T02:03:34;4.13;;;2.70;;
35245;SDS011;21379;50.962;6.960;2023-06-14T02:06:03;4.40;;;2.78;;
35245;SDS011;21379;50.962;6.960;2023-06-14T02:08:30;5.18;;;3.17;;
35245;SDS011;21379;50.962;6.960;2023-06-14T02:10:59;4.75;;;2.90;;
35245;SDS011;21379;50.962;6.960;2023-06-14T02:13:27;6.95;;;3.30;;
35245;SDS011;21379;50.962;6.960;2023-06-14T02:15:54;6.22;;;3.20;;
35245;SDS011;21379;50.962;6.960;2023-06-14T02:18:22;5.43;;;3.00;;
35245;SDS011;21379;50.962;6.960;2023-06-14T02:20:49;5.80;;;2.83;;
35245;SDS011;21379;50.962;6.960;2023-06-14T02:23:16;7.63;;;3.13;;
35245;SDS011;21379;50.962;6.960;2023-06-14T02:25:43;4.88;;;2.95;;
35245;SDS011;21379;50.962;6.960;2023-06-14T02:28:11;5.50;;;3.22;;
35245;SDS011;21379;50.962;6.960;2023-06-14T02:30:39;4.03;;;2.83;;
35245;SDS011;21379;50.962;6.960;2023-06-14T02:33:06;5.50;;;3.45;;
35245;SDS011;21379;50.962;6.960;2023-06-14T02:35:39;4.03;;;2.90;;
35245;SDS011;21379;50.962;6.960;2023-06-14T02:38:06;5.43;;;2.60;;
35245;SDS011;21379;50.962;6.960;2023-06-14T02:40:33;5.88;;;3.05;;
35245;SDS011;21379;50.962;6.960;2023-06-14T02:43:00;7.78;;;2.75;;
35245;SDS011;21379;50.962;6.960;2023-06-14T02:45:27;8.50;;;3.13;;
35245;SDS011;21379;50.962;6.960;2023-06-14T02:47:55;4.05;;;2.67;;
35245;SDS011;21379;50.962;6.960;2023-06-14T02:50:22;2.95;;;2.55;;
35245;SDS011;21379;50.962;6.960;2023-06-14T02:52:49;4.65;;;2.67;;
35245;SDS011;21379;50.962;6.960;2023-06-14T02:55:16;5.25;;;2.65;;
35245;SDS011;21379;50.962;6.960;2023-06-14T02:57:43;4.75;;;3.22;;
35245;SDS011;21379;50.962;6.960;2023-06-14T03:00:10;5.53;;;3.53;;
35245;SDS011;21379;50.962;6.960;2023-06-14T03:02:38;5.78;;;3.20;;
35245;SDS011;21379;50.962;6.960;2023-06-14T03:05:09;4.38;;;2.97;;
35245;SDS011;21379;50.962;6.960;2023-06-14T03:07:36;4.75;;;3.00;;
35245;SDS011;21379;50.962;6.960;2023-06-14T03:10:07;10.80;;;2.90;;
35245;SDS011;21379;50.962;6.960;2023-06-14T03:12:35;4.68;;;3.00;;
35245;SDS011;21379;50.962;6.960;2023-06-14T03:15:04;3.80;;;2.80;;
35245;SDS011;21379;50.962;6.960;2023-06-14T03:17:35;6.20;;;2.58;;
35245;SDS011;21379;50.962;6.960;2023-06-14T03:20:05;3.55;;;2.22;;
35245;SDS011;21379;50.962;6.960;2023-06-14T03:22:34;6.95;;;2.80;;
35245;SDS011;21379;50.962;6.960;2023-06-14T03:25:02;6.40;;;3.17;;
35245;SDS011;21379;50.962;6.960;2023-06-14T03:27:33;8.48;;;3.15;;
35245;SDS011;21379;50.962;6.960;2023-06-14T03:30:01;4.47;;;2.80;;
35245;SDS011;21379;50.962;6.960;2023-06-14T03:32:29;6.20;;;3.03;;
35245;SDS011;21379;50.962;6.960;2023-06-14T03:34:58;6.25;;;2.85;;
35245;SDS011;21379;50.962;6.960;2023-06-14T03:37:25;4.20;;;3.22;;
35245;SDS011;21379;50.962;6.960;2023-06-14T03:39:54;6.68;;;2.70;;
35245;SDS011;21379;50.962;6.960;2023-06-14T03:42:23;6.60;;;3.20;;
35245;SDS011;21379;50.962;6.960;2023-06-14T03:44:50;5.97;;;3.03;;
35245;SDS011;21379;50.962;6.960;2023-06-14T03:47:19;7.30;;;3.70;;
35245;SDS011;21379;50.962;6.960;2023-06-14T03:49:46;3.22;;;2.67;;
35245;SDS011;21379;50.962;6.960;2023-06-14T03:52:13;6.32;;;2.75;;
35245;SDS011;21379;50.962;6.960;2023-06-14T03:54:43;4.50;;;2.80;;
35245;SDS011;21379;50.962;6.960;2023-06-14T03:57:13;3.67;;;2.60;;
35245;SDS011;21379;50.962;6.960;2023-06-14T03:59:41;5.00;;;2.40;;
35245;SDS011;21379;50.962;6.960;2023-06-14T04:02:08;6.63;;;3.08;;
35245;SDS011;21379;50.962;6.960;2023-06-14T04:04:35;4.03;;;2.67;;
35245;SDS011;21379;50.962;6.960;2023-06-14T04:07:04;6.55;;;2.85;;
35245;SDS011;21379;50.962;6.960;2023-06-14T04:09:33;5.75;;;3.00;;
35245;SDS011;21379;50.962;6.960;2023-06-14T04:12:01;6.00;;;2.72;;
35245;SDS011;21379;50.962;6.960;2023-06-14T04:14:32;4.40;;;2.45;;
35245;SDS011;21379;50.962;6.960;2023-06-14T04:17:00;4.40;;;2.53;;
35245;SDS011;21379;50.962;6.960;2023-06-14T04:19:27;3.10;;;2.42;;
35245;SDS011;21379;50.962;6.960;2023-06-14T04:21:54;3.75;;;2.42;;
35245;SDS011;21379;50.962;6.960;2023-06-14T04:24:21;4.65;;;2.25;;
35245;SDS011;21379;50.962;6.960;2023-06-14T04:26:48;3.45;;;2.45;;
35245;SDS011;21379;50.962;6.960;2023-06-14T04:29:17;4.75;;;2.85;;
35245;SDS011;21379;50.962;6.960;2023-06-14T04:31:51;5.75;;;3.00;;
35245;SDS011;21379;50.962;6.960;2023-06-14T04:34:20;3.63;;;2.30;;
35245;SDS011;21379;50.962;6.960;2023-06-14T04:36:53;5.40;;;2.75;;
35245;SDS011;21379;50.962;6.960;2023-06-14T04:39:25;3.38;;;2.20;;
35245;SDS011;21379;50.962;6.960;2023-06-14T04:41:53;8.45;;;3.05;;
35245;SDS011;21379;50.962;6.960;2023-06-14T04:44:22;4.72;;;2.42;;
35245;SDS011;21379;50.962;6.960;2023-06-14T04:46:56;7.15;;;2.42;;
35245;SDS011;21379;50.962;6.960;2023-06-14T04:49:24;3.47;;;2.35;;
35245;SDS011;21379;50.962;6.960;2023-06-14T04:51:52;3.70;;;2.13;;
35245;SDS011;21379;50.962;6.960;2023-06-14T04:54:24;3.22;;;2.25;;
35245;SDS011;21379;50.962;6.960;2023-06-14T04:56:52;3.47;;;2.28;;
35245;SDS011;21379;50.962;6.960;2023-06-14T04:59:22;3.13;;;2.17;;
35245;SDS011;21379;50.962;6.960;2023-06-14T05:01:50;4.05;;;2.10;;
35245;SDS011;21379;50.962;6.960;2023-06-14T05:04:19;4.45;;;2.35;;
35245;SDS011;21379;50.962;6.960;2023-06-14T05:06:47;8.20;;;2.58;;
35245;SDS011;21379;50.962;6.960;2023-06-14T05:09:14;2.88;;;2.05;;
35245;SDS011;21379;50.962;6.960;2023-06-14T05:11:43;4.30;;;2.88;;
35245;SDS011;21379;50.962;6.960;2023-06-14T05:14:11;5.85;;;2.30;;
35245;SDS011;21379;50.962;6.960;2023-06-14T05:16:38;2.25;;;1.80;;
35245;SDS011;21379;50.962;6.960;2023-06-14T05:19:05;3.70;;;1.80;;
35245;SDS011;21379;50.962;6.960;2023-06-14T05:21:33;9.07;;;2.55;;
35245;SDS011;21379;50.962;6.960;2023-06-14T05:24:00;3.40;;;1.90;;
35245;SDS011;21379;50.962;6.960;2023-06-14T05:26:27;8.30;;;2.15;;
35245;SDS011;21379;50.962;6.960;2023-06-14T05:28:55;2.53;;;1.80;;
35245;SDS011;21379;50.962;6.960;2023-06-14T05:31:22;3.88;;;2.22;;
35245;SDS011;21379;50.962;6.960;2023-06-14T05:33:51;3.72;;;2.33;;
35245;SDS011;21379;50.962;6.960;2023-06-14T05:36:18;4.13;;;2.25;;
35245;SDS011;21379;50.962;6.960;2023-06-14T05:38:47;5.93;;;2.50;;
35245;SDS011;21379;50.962;6.960;2023-06-14T05:41:15;6.43;;;2.38;;
35245;SDS011;21379;50.962;6.960;2023-06-14T05:43:42;7.32;;;2.17;;
35245;SDS011;21379;50.962;6.960;2023-06-14T05:46:09;3.00;;;2.10;;
35245;SDS011;21379;50.962;6.960;2023-06-14T05:48:36;3.13;;;2.00;;
35245;SDS011;21379;50.962;6.960;2023-06-14T05:51:03;7.20;;;2.40;;
35245;SDS011;21379;50.962;6.960;2023-06-14T05:53:33;5.18;;;1.98;;
35245;SDS011;21379;50.962;6.960;2023-06-14T05:56:02;3.05;;;1.80;;
35245;SDS011;21379;50.962;6.960;2023-06-14T05:58:29;3.90;;;2.25;;
35245;SDS011;21379;50.962;6.960;2023-06-14T06:00:56;2.38;;;1.80;;
35245;SDS011;21379;50.962;6.960;2023-06-14T06:03:23;3.15;;;2.05;;
35245;SDS011;21379;50.962;6.960;2023-06-14T06:05:52;3.72;;;2.08;;
35245;SDS011;21379;50.962;6.960;2023-06-14T06:08:19;3.47;;;2.13;;
35245;SDS011;21379;50.962;6.960;2023-06-14T06:10:46;6.30;;;2.42;;
35245;SDS011;21379;50.962;6.960;2023-06-14T06:13:15;3.92;;;1.88;;
35245;SDS011;21379;50.962;6.960;2023-06-14T06:15:42;4.13;;;1.48;;
35245;SDS011;21379;50.962;6.960;2023-06-14T06:18:08;2.72;;;2.17;;
35245;SDS011;21379;50.962;6.960;2023-06-14T06:20:35;4.28;;;2.20;;
35245;SDS011;21379;50.962;6.960;2023-06-14T06:23:02;4.55;;;1.95;;
35245;SDS011;21379;50.962;6.960;2023-06-14T06:25:29;4.55;;;2.30;;
35245;SDS011;21379;50.962;6.960;2023-06-14T06:27:57;4.63;;;1.75;;
35245;SDS011;21379;50.962;6.960;2023-06-14T06:30:25;4.00;;;2.03;;
35245;SDS011;21379;50.962;6.960;2023-06-14T06:32:52;4.53;;;2.13;;
35245;SDS011;21379;50.962;6.960;2023-06-14T06:35:20;2.38;;;1.52;;
35245;SDS011;21379;50.962;6.960;2023-06-14T06:37:47;2.22;;;1.30;;
35245;SDS011;21379;50.962;6.960;2023-06-14T06:40:14;3.72;;;1.60;;
35245;SDS011;21379;50.962;6.960;2023-06-14T06:42:41;3.88;;;2.08;;
35245;SDS011;21379;50.962;6.960;2023-06-14T06:45:11;4.20;;;2.17;;
35245;SDS011;21379;50.962;6.960;2023-06-14T06:47:39;3.33;;;2.17;;
35245;SDS011;21379;50.962;6.960;2023-06-14T06:50:07;3.00;;;1.90;;
35245;SDS011;21379;50.962;6.960;2023-06-14T06:52:34;2.80;;;1.25;;
35245;SDS011;21379;50.962;6.960;2023-06-14T06:55:01;2.70;;;1.40;;
35245;SDS011;21379;50.962;6.960;2023-06-14T06:57:28;2.35;;;1.60;;
35245;SDS011;21379;50.962;6.960;2023-06-14T06:59:55;2.88;;;1.58;;
35245;SDS011;21379;50.962;6.960;2023-06-14T07:02:23;4.82;;;1.55;;
35245;SDS011;21379;50.962;6.960;2023-06-14T07:04:52;4.80;;;2.10;;
35245;SDS011;21379;50.962;6.960;2023-06-14T07:07:18;2.35;;;1.48;;
35245;SDS011;21379;50.962;6.960;2023-06-14T07:09:45;2.97;;;1.77;;
35245;SDS011;21379;50.962;6.960;2023-06-14T07:12:12;4.07;;;1.88;;
35245;SDS011;21379;50.962;6.960;2023-06-14T07:14:39;4.82;;;1.98;;
35245;SDS011;21379;50.962;6.960;2023-06-14T07:17:06;2.53;;;1.50;;
35245;SDS011;21379;50.962;6.960;2023-06-14T07:19:35;3.85;;;1.27;;
35245;SDS011;21379;50.962;6.960;2023-06-14T07:22:03;3.47;;;1.70;;
35245;SDS011;21379;50.962;6.960;2023-06-14T07:24:30;4.35;;;2.22;;
35245;SDS011;21379;50.962;6.960;2023-06-14T07:26:57;2.83;;;1.30;;
35245;SDS011;21379;50.962;6.960;2023-06-14T07:29:24;3.05;;;1.90;;
35245;SDS011;21379;50.962;6.960;2023-06-14T07:31:52;3.05;;;1.27;;
35245;SDS011;21379;50.962;6.960;2023-06-14T07:34:19;2.55;;;1.88;;
35245;SDS011;21379;50.962;6.960;2023-06-14T07:36:46;4.72;;;1.50;;
35245;SDS011;21379;50.962;6.960;2023-06-14T07:39:14;4.22;;;1.63;;
35245;SDS011;21379;50.962;6.960;2023-06-14T07:41:41;4.38;;;1.23;;
35245;SDS011;21379;50.962;6.960;2023-06-14T07:44:08;2.15;;;1.20;;
35245;SDS011;21379;50.962;6.960;2023-06-14T07:46:35;2.00;;;1.17;;
35245;SDS011;21379;50.962;6.960;2023-06-14T07:49:03;3.03;;;1.08;;
35245;SDS011;21379;50.962;6.960;2023-06-14T07:51:30;1.98;;;1.20;;
35245;SDS011;21379;50.962;6.960;2023-06-14T07:53:58;1.17;;;0.90;;
35245;SDS011;21379;50.962;6.960;2023-06-14T07:56:29;4.43;;;0.90;;
35245;SDS011;21379;50.962;6.960;2023-06-14T07:58:56;2.85;;;1.30;;
35245;SDS011;21379;50.962;6.960;2023-06-14T08:01:23;1.95;;;1.30;;
35245;SDS011;21379;50.962;6.960;2023-06-14T08:03:50;2.60;;;0.77;;
35245;SDS011;21379;50.962;6.960;2023-06-14T08:06:17;2.58;;;1.02;;
35245;SDS011;21379;50.962;6.960;2023-06-14T08:08:44;6.82;;;1.35;;
35245;SDS011;21379;50.962;6.960;2023-06-14T08:11:11;1.45;;;0.90;;
35245;SDS011;21379;50.962;6.960;2023-06-14T08:13:40;5.15;;;0.93;;
35245;SDS011;21379;50.962;6.960;2023-06-14T08:16:06;2.10;;;0.80;;
35245;SDS011;21379;50.962;6.960;2023-06-14T08:18:33;1.83;;;0.70;;
35245;SDS011;21379;50.962;6.960;2023-06-14T08:21:00;4.03;;;0.95;;
35245;SDS011;21379;50.962;6.960;2023-06-14T08:23:28;1.63;;;0.70;;
35245;SDS011;21379;50.962;6.960;2023-06-14T08:25:54;1.35;;;0.82;;
35245;SDS011;21379;50.962;6.960;2023-06-14T08:28:22;2.22;;;0.90;;
35245;SDS011;21379;50.962;6.960;2023-06-14T08:30:52;4.07;;;1.02;;
35245;SDS011;21379;50.962;6.960;2023-06-14T08:33:18;7.22;;;1.15;;
35245;SDS011;21379;50.962;6.960;2023-06-14T08:35:45;2.40;;;1.00;;
35245;SDS011;21379;50.962;6.960;2023-06-14T08:38:12;9.43;;;1.30;;
35245;SDS011;21379;50.962;6.960;2023-06-14T08:40:40;0.95;;;0.60;;
35245;SDS011;21379;50.962;6.960;2023-06-14T08:43:08;1.17;;;0.73;;
35245;SDS011;21379;50.962;6.960;2023-06-14T08:45:35;5.88;;;1.02;;
35245;SDS011;21379;50.962;6.960;2023-06-14T08:48:05;2.15;;;1.23;;
35245;SDS011;21379;50.962;6.960;2023-06-14T08:50:34;7.38;;;0.90;;
35245;SDS011;21379;50.962;6.960;2023-06-14T08:53:06;2.10;;;1.35;;
35245;SDS011;21379;50.962;6.960;2023-06-14T08:55:38;1.48;;;0.85;;
35245;SDS011;21379;50.962;6.960;2023-06-14T08:58:06;1.45;;;0.88;;
35245;SDS011;21379;50.962;6.960;2023-06-14T09:00:34;1.40;;;0.73;;
35245;SDS011;21379;50.962;6.960;2023-06-14T09:03:05;0.82;;;0.70;;
35245;SDS011;21379;50.962;6.960;2023-06-14T09:05:38;3.60;;;1.05;;
35245;SDS011;21379;50.962;6.960;2023-06-14T09:08:05;4.18;;;1.08;;
35245;SDS011;21379;50.962;6.960;2023-06-14T09:10:32;1.15;;;0.60;;
35245;SDS011;21379;50.962;6.960;2023-06-14T09:13:02;0.70;;;0.57;;
35245;SDS011;21379;50.962;6.960;2023-06-14T09:15:29;2.10;;;0.90;;
35245;SDS011;21379;50.962;6.960;2023-06-14T09:17:56;1.52;;;1.05;;
35245;SDS011;21379;50.962;6.960;2023-06-14T09:20:25;4.10;;;0.95;;
35245;SDS011;21379;50.962;6.960;2023-06-14T09:22:53;1.40;;;0.93;;
35245;SDS011;21379;50.962;6.960;2023-06-14T09:25:20;3.20;;;0.90;;
35245;SDS011;21379;50.962;6.960;2023-06-14T09:27:48;1.05;;;0.70;;
35245;SDS011;21379;50.962;6.960;2023-06-14T09:30:14;0.95;;;0.70;;
35245;SDS011;21379;50.962;6.960;2023-06-14T09:32:41;0.82;;;0.68;;
35245;SDS011;21379;50.962;6.960;2023-06-14T09:35:08;1.45;;;0.75;;
35245;SDS011;21379;50.962;6.960;2023-06-14T09:37:37;2.63;;;1.00;;
35245;SDS011;21379;50.962;6.960;2023-06-14T09:40:04;2.15;;;0.90;;
35245;SDS011;21379;50.962;6.960;2023-06-14T09:42:32;1.13;;;0.88;;
35245;SDS011;21379;50.962;6.960;2023-06-14T09:45:00;1.35;;;0.73;;
35245;SDS011;21379;50.962;6.960;2023-06-14T09:47:28;0.68;;;0.68;;
35245;SDS011;21379;50.962;6.960;2023-06-14T09:49:55;2.10;;;0.70;;
35245;SDS011;21379;50.962;6.960;2023-06-14T09:52:22;1.98;;;0.90;;
35245;SDS011;21379;50.962;6.960;2023-06-14T09:54:53;1.50;;;0.73;;
35245;SDS011;21379;50.962;6.960;2023-06-14T09:57:22;2.10;;;0.73;;
35245;SDS011;21379;50.962;6.960;2023-06-14T09:59:52;2.67;;;0.63;;
35245;SDS011;21379;50.962;6.960;2023-06-14T10:02:24;0.88;;;0.80;;
35245;SDS011;21379;50.962;6.960;2023-06-14T10:04:55;1.73;;;0.85;;
35245;SDS011;21379;50.962;6.960;2023-06-14T10:07:26;1.00;;;0.75;;
35245;SDS011;21379;50.962;6.960;2023-06-14T10:09:57;0.75;;;0.70;;
35245;SDS011;21379;50.962;6.960;2023-06-14T10:12:25;0.63;;;0.50;;
35245;SDS011;21379;50.962;6.960;2023-06-14T10:14:52;0.88;;;0.68;;
35245;SDS011;21379;50.962;6.960;2023-06-14T10:17:22;4.97;;;1.40;;
35245;SDS011;21379;50.962;6.960;2023-06-14T10:20:00;1.25;;;0.90;;
35245;SDS011;21379;50.962;6.960;2023-06-14T10:22:37;1.05;;;0.88;;
35245;SDS011;21379;50.962;6.960;2023-06-14T10:25:13;2.42;;;1.00;;
35245;SDS011;21379;50.962;6.960;2023-06-14T10:28:01;2.92;;;0.90;;
35245;SDS011;21379;50.962;6.960;2023-06-14T10:30:30;2.13;;;0.57;;
35245;SDS011;21379;50.962;6.960;2023-06-14T10:33:03;1.33;;;0.85;;
35245;SDS011;21379;50.962;6.960;2023-06-14T10:35:31;2.58;;;1.08;;
35245;SDS011;21379;50.962;6.960;2023-06-14T10:38:06;6.88;;;1.25;;
35245;SDS011;21379;50.962;6.960;2023-06-14T10:40:35;0.82;;;0.60;;
35245;SDS011;21379;50.962;6.960;2023-06-14T10:48:43;1.70;;;0.85;;
35245;SDS011;21379;50.962;6.960;2023-06-14T10:51:20;0.82;;;0.70;;
35245;SDS011;21379;50.962;6.960;2023-06-14T10:53:47;0.88;;;0.60;;
35245;SDS011;21379;50.962;6.960;2023-06-14T10:56:27;1.65;;;0.93;;
35245;SDS011;21379;50.962;6.960;2023-06-14T10:58:56;2.25;;;0.73;;
35245;SDS011;21379;50.962;6.960;2023-06-14T11:01:28;3.22;;;0.73;;
35245;SDS011;21379;50.962;6.960;2023-06-14T11:04:06;1.02;;;0.75;;
35245;SDS011;21379;50.962;6.960;2023-06-14T11:06:41;1.13;;;0.82;;
35245;SDS011;21379;50.962;6.960;2023-06-14T11:09:30;2.10;;;0.90;;
35245;SDS011;21379;50.962;6.960;2023-06-14T11:12:17;0.75;;;0.75;;
35245;SDS011;21379;50.962;6.960;2023-06-14T11:14:45;3.88;;;1.00;;
35245;SDS011;21379;50.962;6.960;2023-06-14T11:17:13;0.93;;;0.80;;
35245;SDS011;21379;50.962;6.960;2023-06-14T11:19:40;1.33;;;0.88;;
35245;SDS011;21379;50.962;6.960;2023-06-14T11:22:07;6.25;;;1.10;;
35245;SDS011;21379;50.962;6.960;2023-06-14T11:24:34;1.00;;;0.70;;
35245;SDS011;21379;50.962;6.960;2023-06-14T11:27:01;0.73;;;0.68;;
35245;SDS011;21379;50.962;6.960;2023-06-14T11:29:30;1.25;;;0.70;;
35245;SDS011;21379;50.962;6.960;2023-06-14T11:31:57;5.22;;;1.02;;
35245;SDS011;21379;50.962;6.960;2023-06-14T11:34:24;1.90;;;0.75;;
35245;SDS011;21379;50.962;6.960;2023-06-14T11:36:51;0.88;;;0.77;;
35245;SDS011;21379;50.962;6.960;2023-06-14T11:39:23;1.83;;;1.10;;
35245;SDS011;21379;50.962;6.960;2023-06-14T11:41:50;2.17;;;0.65;;
35245;SDS011;21379;50.962;6.960;2023-06-14T11:44:17;2.58;;;0.60;;
35245;SDS011;21379;50.962;6.960;2023-06-14T11:46:46;2.20;;;0.93;;
35245;SDS011;21379;50.962;6.960;2023-06-14T11:49:12;1.15;;;0.82;;
35245;SDS011;21379;50.962;6.960;2023-06-14T11:51:39;1.67;;;0.90;;
35245;SDS011;21379;50.962;6.960;2023-06-14T11:54:08;1.27;;;1.17;;
35245;SDS011;21379;50.962;6.960;2023-06-14T11:56:36;0.70;;;0.70;;
35245;SDS011;21379;50.962;6.960;2023-06-14T11:59:03;1.35;;;0.70;;
35245;SDS011;21379;50.962;6.960;2023-06-14T12:01:31;1.83;;;0.70;;
35245;SDS011;21379;50.962;6.960;2023-06-14T12:03:59;1.42;;;0.65;;
35245;SDS011;21379;50.962;6.960;2023-06-14T12:06:27;4.22;;;0.75;;
35245;SDS011;21379;50.962;6.960;2023-06-14T12:08:58;2.60;;;0.73;;
35245;SDS011;21379;50.962;6.960;2023-06-14T12:11:28;3.47;;;0.93;;
35245;SDS011;21379;50.962;6.960;2023-06-14T12:13:58;0.50;;;0.45;;
35245;SDS011;21379;50.962;6.960;2023-06-14T12:16:29;2.30;;;0.77;;
35245;SDS011;21379;50.962;6.960;2023-06-14T12:19:01;0.57;;;0.57;;
35245;SDS011;21379;50.962;6.960;2023-06-14T12:21:36;5.53;;;0.73;;
35245;SDS011;21379;50.962;6.960;2023-06-14T12:24:05;7.57;;;0.93;;
35245;SDS011;21379;50.962;6.960;2023-06-14T12:26:33;1.10;;;0.70;;
35245;SDS011;21379;50.962;6.960;2023-06-14T12:29:04;0.75;;;0.68;;
35245;SDS011;21379;50.962;6.960;2023-06-14T12:31:32;1.17;;;0.60;;
35245;SDS011;21379;50.962;6.960;2023-06-14T12:34:00;1.38;;;0.68;;
35245;SDS011;21379;50.962;6.960;2023-06-14T12:36:27;3.22;;;1.10;;
35245;SDS011;21379;50.962;6.960;2023-06-14T12:38:54;2.88;;;0.90;;
35245;SDS011;21379;50.962;6.960;2023-06-14T12:41:21;1.50;;;0.68;;
35245;SDS011;21379;50.962;6.960;2023-06-14T12:43:49;1.75;;;0.50;;
35245;SDS011;21379;50.962;6.960;2023-06-14T12:46:16;0.70;;;0.70;;
35245;SDS011;21379;50.962;6.960;2023-06-14T12:48:43;2.20;;;0.52;;
35245;SDS011;21379;50.962;6.960;2023-06-14T12:51:12;1.90;;;0.68;;
35245;SDS011;21379;50.962;6.960;2023-06-14T12:53:38;3.53;;;0.82;;
35245;SDS011;21379;50.962;6.960;2023-06-14T12:56:05;2.50;;;0.68;;
35245;SDS011;21379;50.962;6.960;2023-06-14T12:58:32;0.85;;;0.57;;
35245;SDS011;21379;50.962;6.960;2023-06-14T13:00:59;0.55;;;0.55;;
35245;SDS011;21379;50.962;6.960;2023-06-14T13:03:26;0.80;;;0.57;;
35245;SDS011;21379;50.962;6.960;2023-06-14T13:05:53;0.90;;;0.63;;
35245;SDS011;21379;50.962;6.960;2023-06-14T13:08:21;1.05;;;0.60;;
35245;SDS011;21379;50.962;6.960;2023-06-14T13:10:48;0.68;;;0.50;;
35245;SDS011;21379;50.962;6.960;2023-06-14T13:13:15;3.60;;;0.63;;
35245;SDS011;21379;50.962;6.960;2023-06-14T13:15:42;0.68;;;0.50;;
35245;SDS011;21379;50.962;6.960;2023-06-14T13:18:10;0.60;;;0.60;;
35245;SDS011;21379;50.962;6.960;2023-06-14T13:20:38;1.55;;;0.63;;
35245;SDS011;21379;50.962;6.960;2023-06-14T13:23:05;6.13;;;0.75;;
35245;SDS011;21379;50.962;6.960;2023-06-14T13:25:34;0.82;;;0.50;;
35245;SDS011;21379;50.962;6.960;2023-06-14T13:28:01;1.75;;;0.90;;
35245;SDS011;21379;50.962;6.960;2023-06-14T13:30:28;0.60;;;0.60;;
35245;SDS011;21379;50.962;6.960;2023-06-14T13:32:55;0.63;;;0.60;;
35245;SDS011;21379;50.962;6.960;2023-06-14T13:35:22;1.65;;;0.80;;
35245;SDS011;21379;50.962;6.960;2023-06-14T13:37:50;1.48;;;0.80;;
35245;SDS011;21379;50.962;6.960;2023-06-14T13:40:17;1.23;;;0.75;;
35245;SDS011;21379;50.962;6.960;2023-06-14T13:42:45;2.28;;;0.80;;
35245;SDS011;21379;50.962;6.960;2023-06-14T13:45:13;0.93;;;0.70;;
35245;SDS011;21379;50.962;6.960;2023-06-14T13:47:41;1.00;;;0.80;;
35245;SDS011;21379;50.962;6.960;2023-06-14T13:50:09;1.05;;;0.82;;
35245;SDS011;21379;50.962;6.960;2023-06-14T13:52:37;3.83;;;1.02;;
35245;SDS011;21379;50.962;6.960;2023-06-14T13:55:04;0.88;;;0.82;;
35245;SDS011;21379;50.962;6.960;2023-06-14T13:57:32;2.45;;;0.65;;
35245;SDS011;21379;50.962;6.960;2023-06-14T14:00:01;1.58;;;0.90;;
35245;SDS011;21379;50.962;6.960;2023-06-14T14:02:37;1.52;;;0.80;;
35245;SDS011;21379;50.962;6.960;2023-06-14T14:05:05;0.52;;;0.50;;
35245;SDS011;21379;50.962;6.960;2023-06-14T14:07:32;1.23;;;0.73;;
35245;SDS011;21379;50.962;6.960;2023-06-14T14:10:01;1.25;;;1.13;;
35245;SDS011;21379;50.962;6.960;2023-06-14T14:12:31;1.10;;;1.00;;
35245;SDS011;21379;50.962;6.960;2023-06-14T14:15:01;1.13;;;0.90;;
35245;SDS011;21379;50.962;6.960;2023-06-14T14:17:29;0.90;;;0.80;;
35245;SDS011;21379;50.962;6.960;2023-06-14T14:19:55;1.00;;;0.90;;
35245;SDS011;21379;50.962;6.960;2023-06-14T14:22:22;1.75;;;0.50;;
35245;SDS011;21379;50.962;6.960;2023-06-14T14:24:49;1.17;;;0.70;;
35245;SDS011;21379;50.962;6.960;2023-06-14T14:27:16;1.30;;;0.70;;
35245;SDS011;21379;50.962;6.960;2023-06-14T14:29:43;0.50;;;0.50;;
35245;SDS011;21379;50.962;6.960;2023-06-14T14:32:11;1.02;;;0.80;;
35245;SDS011;21379;50.962;6.960;2023-06-14T14:34:39;1.33;;;0.88;;
35245;SDS011;21379;50.962;6.960;2023-06-14T14:37:09;1.98;;;0.88;;
35245;SDS011;21379;50.962;6.960;2023-06-14T14:39:36;1.08;;;0.70;;
35245;SDS011;21379;50.962;6.960;2023-06-14T14:42:03;1.13;;;0.88;;
35245;SDS011;21379;50.962;6.960;2023-06-14T14:44:30;1.15;;;1.00;;
35245;SDS011;21379;50.962;6.960;2023-06-14T14:46:57;1.48;;;1.05;;
35245;SDS011;21379;50.962;6.960;2023-06-14T14:49:25;2.03;;;1.00;;
35245;SDS011;21379;50.962;6.960;2023-06-14T14:51:52;1.05;;;0.90;;
35245;SDS011;21379;50.962;6.960;2023-06-14T14:54:21;0.70;;;0.70;;
35245;SDS011;21379;50.962;6.960;2023-06-14T14:56:48;2.45;;;0.73;;
35245;SDS011;21379;50.962;6.960;2023-06-14T14:59:15;1.67;;;1.13;;
35245;SDS011;21379;50.962;6.960;2023-06-14T15:01:42;0.57;;;0.57;;